createdAt,value
2018-05-10T00:01:42.424Z,11.34
2018-05-10T00:04:45.680Z,11.39
2018-05-10T00:07:49.209Z,11.24
2018-05-10T00:10:53.467Z,11.19
2018-05-10T00:13:57.718Z,11.11
2018-05-10T00:17:01.064Z,11.13
2018-05-10T00:20:04.582Z,11.28
2018-05-10T00:23:08.673Z,11.34
2018-05-10T00:26:11.988Z,11.36
2018-05-10T00:29:15.622Z,11.22
2018-05-10T00:32:18.931Z,11.19
2018-05-10T00:35:22.290Z,11.25
2018-05-10T00:38:26.442Z,11.16
2018-05-10T00:41:30.026Z,11.01
2018-05-10T00:44:34.108Z,11.01
2018-05-10T00:47:37.540Z,10.91
2018-05-10T00:50:41.239Z,10.90
2018-05-10T00:53:46.067Z,10.90
2018-05-10T00:56:50.161Z,10.74
2018-05-10T00:59:53.436Z,10.77
2018-05-10T01:02:56.857Z,10.80
2018-05-10T01:06:00.282Z,10.96
2018-05-10T01:09:03.496Z,10.81
2018-05-10T01:12:08.246Z,10.78
2018-05-10T01:15:11.518Z,10.70
2018-05-10T01:18:14.807Z,10.68
2018-05-10T01:21:18.069Z,10.55
2018-05-10T01:24:21.330Z,10.58
2018-05-10T01:27:27.874Z,10.61
2018-05-10T01:30:43.425Z,10.59
2018-05-10T01:33:47.552Z,10.66
2018-05-10T01:36:50.823Z,10.77
2018-05-10T01:39:54.106Z,10.79
2018-05-10T01:42:57.362Z,10.84
2018-05-10T01:46:00.660Z,11.01
2018-05-10T01:49:03.996Z,11.05
2018-05-10T01:52:08.021Z,11.02
2018-05-10T01:55:11.282Z,10.88
2018-05-10T01:58:14.564Z,10.99
2018-05-10T02:01:17.811Z,10.95
2018-05-10T02:04:21.106Z,10.98
2018-05-10T02:07:24.365Z,10.86
2018-05-10T02:10:27.622Z,10.87
2018-05-10T02:13:31.014Z,10.91
2018-05-10T02:16:34.287Z,10.83
2018-05-10T02:19:38.301Z,10.90
2018-05-10T02:22:42.420Z,10.93
2018-05-10T02:25:46.489Z,10.89
2018-05-10T02:28:49.758Z,10.84
2018-05-10T02:31:53.004Z,10.82
2018-05-10T02:34:56.275Z,10.70
2018-05-10T02:37:59.524Z,10.78
2018-05-10T02:41:02.802Z,10.88
2018-05-10T02:44:06.820Z,10.93
2018-05-10T02:47:10.085Z,10.96
2018-05-10T02:50:13.329Z,10.81
2018-05-10T02:53:17.357Z,10.79
2018-05-10T02:56:20.625Z,10.81
2018-05-10T02:59:24.642Z,10.84
2018-05-10T03:02:27.930Z,10.88
2018-05-10T03:05:31.189Z,10.80
2018-05-10T03:08:34.520Z,10.64
2018-05-10T03:11:37.788Z,10.57
2018-05-10T03:14:41.042Z,10.55
2018-05-10T03:17:45.158Z,10.61
2018-05-10T03:20:49.173Z,10.63
2018-05-10T03:23:52.426Z,10.47
2018-05-10T03:26:55.708Z,10.42
2018-05-10T03:29:58.958Z,10.37
2018-05-10T03:33:02.970Z,10.27
2018-05-10T03:36:07.088Z,10.20
2018-05-10T03:39:11.117Z,10.18
2018-05-10T03:42:14.652Z,10.32
2018-05-10T03:45:17.916Z,10.22
2018-05-10T03:48:21.185Z,10.29
2018-05-10T03:51:24.505Z,10.22
2018-05-10T03:54:27.804Z,10.27
2018-05-10T03:57:31.808Z,10.27
2018-05-10T04:00:35.954Z,10.22
2018-05-10T04:03:57.213Z,10.35
2018-05-10T04:07:18.214Z,10.39
2018-05-10T04:10:39.194Z,10.41
2018-05-10T04:13:42.441Z,10.46
2018-05-10T04:16:45.687Z,10.50
2018-05-10T04:19:50.188Z,10.56
2018-05-10T04:22:53.547Z,10.73
2018-05-10T04:25:56.972Z,10.84
2018-05-10T04:29:01.858Z,11.02
2018-05-10T04:32:06.016Z,11.08
2018-05-10T04:35:09.312Z,11.22
2018-05-10T04:38:12.944Z,11.34
2018-05-10T04:41:16.249Z,11.41
2018-05-10T04:44:23.387Z,11.49
2018-05-10T04:47:26.778Z,11.58
2018-05-10T04:50:30.030Z,11.60
2018-05-10T04:53:34.984Z,11.72
2018-05-10T04:56:38.240Z,11.84
2018-05-10T04:59:41.771Z,11.89
2018-05-10T05:02:45.101Z,11.84
2018-05-10T05:05:49.313Z,12.00
2018-05-10T05:08:52.775Z,12.07
2018-05-10T05:11:56.202Z,12.15
2018-05-10T05:14:59.447Z,12.09
2018-05-10T05:18:03.757Z,12.10
2018-05-10T05:21:07.251Z,12.06
2018-05-10T05:24:11.342Z,12.15
2018-05-10T05:27:14.592Z,12.23
2018-05-10T05:30:17.904Z,12.33
2018-05-10T05:33:21.179Z,12.48
2018-05-10T05:36:24.460Z,12.51
2018-05-10T05:39:28.803Z,12.77
2018-05-10T05:42:32.511Z,12.78
2018-05-10T05:45:35.790Z,12.92
2018-05-10T05:48:39.975Z,13.08
2018-05-10T05:51:43.540Z,13.18
2018-05-10T05:54:46.842Z,13.46
2018-05-10T05:57:50.177Z,14.42
2018-05-10T06:00:53.445Z,15.85
2018-05-10T06:03:56.717Z,17.56
2018-05-10T06:07:00.017Z,18.56
2018-05-10T06:10:03.426Z,19.73
2018-05-10T06:13:07.782Z,20.30
2018-05-10T06:16:11.048Z,21.06
2018-05-10T06:19:14.428Z,21.06
2018-05-10T06:22:18.475Z,21.36
2018-05-10T06:25:21.742Z,22.36
2018-05-10T06:28:25.931Z,22.78
2018-05-10T06:31:29.239Z,22.97
2018-05-10T06:34:33.264Z,23.06
2018-05-10T06:37:37.293Z,22.97
2018-05-10T06:40:40.547Z,22.82
2018-05-10T06:43:43.869Z,22.97
2018-05-10T06:46:47.230Z,21.78
2018-05-10T06:49:50.405Z,21.01
2018-05-10T06:52:53.674Z,22.07
2018-05-10T06:55:57.917Z,20.66
2018-05-10T06:59:01.222Z,20.58
2018-05-10T07:02:04.479Z,21.23
2018-05-10T07:05:07.732Z,21.30
2018-05-10T07:08:12.157Z,20.16
2018-05-10T07:11:15.555Z,19.75
2018-05-10T07:14:18.825Z,20.35
2018-05-10T07:17:22.396Z,20.66
2018-05-10T07:20:26.397Z,20.81
2018-05-10T07:23:30.644Z,20.83
2018-05-10T07:26:34.072Z,20.36
2018-05-10T07:29:37.317Z,21.27
2018-05-10T07:32:42.087Z,21.44
2018-05-10T07:35:45.350Z,21.20
2018-05-10T07:38:48.605Z,21.11
2018-05-10T07:41:51.890Z,20.62
2018-05-10T07:44:56.013Z,21.36
2018-05-10T07:47:59.294Z,21.40
2018-05-10T07:51:02.536Z,21.82
2018-05-10T07:54:05.813Z,21.12
2018-05-10T07:57:09.857Z,21.45
2018-05-10T08:00:13.116Z,20.90
2018-05-10T08:03:17.242Z,21.37
2018-05-10T08:06:21.257Z,21.86
2018-05-10T08:09:25.311Z,21.50
2018-05-10T08:12:28.621Z,21.18
2018-05-10T08:15:31.892Z,21.73
2018-05-10T08:18:35.508Z,21.98
2018-05-10T08:21:38.777Z,22.19
2018-05-10T08:24:42.787Z,22.39
2018-05-10T08:27:47.799Z,21.98
2018-05-10T08:30:51.080Z,22.59
2018-05-10T08:33:55.303Z,22.56
2018-05-10T08:36:58.669Z,21.55
2018-05-10T08:40:02.108Z,22.15
2018-05-10T08:43:05.398Z,22.35
2018-05-10T08:46:08.661Z,22.20
2018-05-10T08:49:12.708Z,22.70
2018-05-10T08:52:16.138Z,22.75
2018-05-10T08:55:20.636Z,22.62
2018-05-10T08:58:23.910Z,21.60
2018-05-10T09:01:28.857Z,20.99
2018-05-10T09:04:32.247Z,20.77
2018-05-10T09:07:36.278Z,20.62
2018-05-10T09:10:39.526Z,20.86
2018-05-10T09:13:42.789Z,21.02
2018-05-10T09:16:46.075Z,21.87
2018-05-10T09:19:49.381Z,20.78
2018-05-10T09:22:52.690Z,20.58
2018-05-10T09:25:56.018Z,20.92
2018-05-10T09:28:59.311Z,21.27
2018-05-10T09:32:02.581Z,21.06
2018-05-10T09:35:05.848Z,21.45
2018-05-10T09:38:09.951Z,21.16
2018-05-10T09:41:13.216Z,21.04
2018-05-10T09:44:16.504Z,21.19
2018-05-10T09:47:19.783Z,21.19
2018-05-10T09:50:24.051Z,21.32
2018-05-10T09:53:27.434Z,21.58
2018-05-10T09:56:30.697Z,21.19
2018-05-10T09:59:33.958Z,21.25
2018-05-10T10:02:37.221Z,22.06
2018-05-10T10:05:41.259Z,22.46
2018-05-10T10:08:45.366Z,22.87
2018-05-10T10:11:49.386Z,21.44
2018-05-10T10:14:53.412Z,20.95
2018-05-10T10:17:57.461Z,21.26
2018-05-10T10:21:01.012Z,21.62
2018-05-10T10:24:04.361Z,21.37
2018-05-10T10:27:08.656Z,21.50
2018-05-10T10:30:12.683Z,21.32
2018-05-10T10:33:16.760Z,21.43
2018-05-10T10:36:20.010Z,21.94
2018-05-10T10:39:23.509Z,21.86
2018-05-10T10:42:27.551Z,22.39
2018-05-10T10:45:30.981Z,21.77
2018-05-10T10:48:34.174Z,21.39
2018-05-10T10:51:37.432Z,21.09
2018-05-10T10:54:40.813Z,20.53
2018-05-10T10:57:44.865Z,20.62
2018-05-10T11:00:48.114Z,20.93
2018-05-10T11:03:52.139Z,22.20
2018-05-10T11:06:56.171Z,22.75
2018-05-10T11:09:59.467Z,22.11
2018-05-10T11:13:03.669Z,21.83
2018-05-10T11:16:07.829Z,22.37
2018-05-10T11:19:11.118Z,22.76
2018-05-10T11:22:14.406Z,22.96
2018-05-10T11:25:18.431Z,22.39
2018-05-10T11:28:22.445Z,21.50
2018-05-10T11:31:25.704Z,21.41
2018-05-10T11:34:29.042Z,22.27
2018-05-10T11:37:33.069Z,22.84
2018-05-10T11:40:36.367Z,23.24
2018-05-10T11:43:39.683Z,23.01
2018-05-10T11:46:43.065Z,22.24
2018-05-10T11:49:46.386Z,21.77
2018-05-10T11:52:49.682Z,21.78
2018-05-10T11:55:52.938Z,21.99
2018-05-10T11:58:56.247Z,21.77
2018-05-10T12:01:59.580Z,21.81
2018-05-10T12:05:02.887Z,21.66
2018-05-10T12:08:06.143Z,22.70
2018-05-10T12:11:09.407Z,23.26
2018-05-10T12:14:12.660Z,22.84
2018-05-10T12:17:16.691Z,23.29
2018-05-10T12:20:20.011Z,23.35
2018-05-10T12:23:23.247Z,22.83
2018-05-10T12:26:26.605Z,22.47
2018-05-10T12:29:29.847Z,22.26
2018-05-10T12:32:34.629Z,22.37
2018-05-10T12:35:37.956Z,22.52
2018-05-10T12:38:41.233Z,22.45
2018-05-10T12:41:44.528Z,21.91
2018-05-10T12:44:47.788Z,21.63
2018-05-10T12:48:02.642Z,21.81
2018-05-10T12:51:06.005Z,21.86
2018-05-10T12:54:09.271Z,22.03
2018-05-10T12:57:12.514Z,22.57
2018-05-10T13:00:15.788Z,21.85
2018-05-10T13:03:19.818Z,21.26
2018-05-10T13:06:23.121Z,20.76
2018-05-10T13:09:27.185Z,20.74
2018-05-10T13:12:30.434Z,21.25
2018-05-10T13:15:33.698Z,21.08
2018-05-10T13:18:36.978Z,20.78
2018-05-10T13:21:40.422Z,20.97
2018-05-10T13:24:43.815Z,21.28
2018-05-10T13:27:47.938Z,21.03
2018-05-10T13:30:52.251Z,20.68
2018-05-10T13:33:57.798Z,20.65
2018-05-10T13:37:01.113Z,20.59
2018-05-10T13:40:05.174Z,20.69
2018-05-10T13:43:08.503Z,21.10
2018-05-10T13:46:11.845Z,21.87
2018-05-10T13:49:15.178Z,21.97
2018-05-10T13:52:18.608Z,21.90
2018-05-10T13:55:21.896Z,21.89
2018-05-10T13:58:25.387Z,21.26
2018-05-10T14:01:53.554Z,21.63
2018-05-10T14:04:58.334Z,21.83
2018-05-10T14:08:01.693Z,21.79
2018-05-10T14:11:05.770Z,21.67
2018-05-10T14:14:09.019Z,21.47
2018-05-10T14:17:12.300Z,21.21
2018-05-10T14:20:16.387Z,20.65
2018-05-10T14:23:19.895Z,20.64
2018-05-10T14:26:23.190Z,21.05
2018-05-10T14:29:26.568Z,20.82
2018-05-10T14:32:29.857Z,20.77
2018-05-10T14:35:33.128Z,20.53
2018-05-10T14:38:43.208Z,20.81
2018-05-10T14:41:46.732Z,20.88
2018-05-10T14:44:50.668Z,20.93
2018-05-10T14:47:54.847Z,20.48
2018-05-10T14:50:59.411Z,20.04
2018-05-10T14:54:03.167Z,19.97
2018-05-10T14:57:06.466Z,20.27
2018-05-10T15:00:09.766Z,20.41
2018-05-10T15:03:13.127Z,20.41
2018-05-10T15:06:16.486Z,20.41
2018-05-10T15:09:19.829Z,20.53
2018-05-10T15:12:23.123Z,20.57
2018-05-10T15:15:26.517Z,20.49
2018-05-10T15:18:29.726Z,20.27
2018-05-10T15:21:33.777Z,20.18
2018-05-10T15:24:37.113Z,20.38
2018-05-10T15:27:40.413Z,20.66
2018-05-10T15:30:43.777Z,20.58
2018-05-10T15:33:47.055Z,20.16
2018-05-10T15:36:50.362Z,20.52
2018-05-10T15:39:53.811Z,20.35
2018-05-10T15:42:57.272Z,20.33
2018-05-10T15:46:00.710Z,20.22
2018-05-10T15:49:04.072Z,19.76
2018-05-10T15:52:07.445Z,19.71
2018-05-10T15:55:10.720Z,19.45
2018-05-10T15:58:14.044Z,19.29
2018-05-10T16:01:17.325Z,19.02
2018-05-10T16:04:20.578Z,18.89
2018-05-10T16:07:23.856Z,18.75
2018-05-10T16:10:27.181Z,18.79
2018-05-10T16:13:31.706Z,18.76
2018-05-10T16:16:35.735Z,18.73
2018-05-10T16:19:38.991Z,18.73
2018-05-10T16:22:43.090Z,18.74
2018-05-10T16:25:46.369Z,18.62
2018-05-10T16:28:49.667Z,18.88
2018-05-10T16:31:53.763Z,18.94
2018-05-10T16:34:57.067Z,18.72
2018-05-10T16:38:01.060Z,18.58
2018-05-10T16:41:04.399Z,18.58
2018-05-10T16:44:07.696Z,18.64
2018-05-10T16:47:10.981Z,18.79
2018-05-10T16:50:14.234Z,18.79
2018-05-10T16:53:18.277Z,18.63
2018-05-10T16:56:21.568Z,18.70
2018-05-10T16:59:24.849Z,18.63
2018-05-10T17:02:28.154Z,18.50
2018-05-10T17:05:31.495Z,18.32
2018-05-10T17:08:35.524Z,18.18
2018-05-10T17:11:38.860Z,18.03
2018-05-10T17:14:42.145Z,18.11
2018-05-10T17:17:45.417Z,18.16
2018-05-10T17:20:48.671Z,18.29
2018-05-10T17:23:51.927Z,18.49
2018-05-10T17:26:55.244Z,18.57
2018-05-10T17:29:58.503Z,18.37
2018-05-10T17:33:02.539Z,18.25
2018-05-10T17:36:05.931Z,18.17
2018-05-10T17:39:09.230Z,18.03
2018-05-10T17:42:12.581Z,17.97
2018-05-10T17:45:16.034Z,17.80
2018-05-10T17:48:19.295Z,17.69
2018-05-10T17:51:22.597Z,17.46
2018-05-10T17:54:25.840Z,17.37
2018-05-10T17:57:29.376Z,17.31
2018-05-10T18:00:32.650Z,17.32
2018-05-10T18:03:35.922Z,17.38
2018-05-10T18:06:39.978Z,17.30
2018-05-10T18:09:43.249Z,17.20
2018-05-10T18:12:47.312Z,17.22
2018-05-10T18:15:50.572Z,17.04
2018-05-10T18:18:56.770Z,17.00
2018-05-10T18:22:01.319Z,16.97
2018-05-10T18:25:04.595Z,16.92
2018-05-10T18:28:08.698Z,16.94
2018-05-10T18:31:12.107Z,16.89
2018-05-10T18:34:15.414Z,16.90
2018-05-10T18:37:19.058Z,16.83
2018-05-10T18:40:22.365Z,16.82
2018-05-10T18:43:25.681Z,16.76
2018-05-10T18:46:29.766Z,16.72
2018-05-10T18:49:33.010Z,16.74
2018-05-10T18:52:36.277Z,16.79
2018-05-10T18:55:39.620Z,16.64
2018-05-10T18:58:42.973Z,16.64
2018-05-10T19:01:46.258Z,16.59
2018-05-10T19:04:49.505Z,16.60
2018-05-10T19:07:52.874Z,16.55
2018-05-10T19:10:56.185Z,16.48
2018-05-10T19:13:59.492Z,16.39
2018-05-10T19:17:02.849Z,16.29
2018-05-10T19:20:06.941Z,16.16
2018-05-10T19:23:10.502Z,16.02
2018-05-10T19:26:13.753Z,15.95
2018-05-10T19:29:17.016Z,15.84
2018-05-10T19:32:21.462Z,15.71
2018-05-10T19:35:24.735Z,15.40
2018-05-10T19:38:28.366Z,15.28
2018-05-10T19:41:31.641Z,15.06
2018-05-10T19:44:34.958Z,15.05
2018-05-10T19:47:38.269Z,15.17
2018-05-10T19:50:41.602Z,15.30
2018-05-10T19:53:44.893Z,14.88
2018-05-10T19:56:48.285Z,14.66
2018-05-10T19:59:51.776Z,14.38
2018-05-10T20:02:56.318Z,14.35
2018-05-10T20:05:59.579Z,14.28
2018-05-10T20:09:03.629Z,13.87
2018-05-10T20:12:06.877Z,13.75
2018-05-10T20:15:11.006Z,13.90
2018-05-10T20:18:15.439Z,13.86
2018-05-10T20:21:23.061Z,13.74
2018-05-10T20:24:26.320Z,13.61
2018-05-10T20:27:29.626Z,13.18
2018-05-10T20:30:33.755Z,12.45
2018-05-10T20:33:37.790Z,12.60
2018-05-10T20:36:41.104Z,12.19
2018-05-10T20:39:45.787Z,12.18
2018-05-10T20:42:50.188Z,12.23
2018-05-10T20:45:53.438Z,12.11
2018-05-10T20:48:56.699Z,12.14
2018-05-10T20:51:59.981Z,12.10
2018-05-10T20:55:03.263Z,12.12
2018-05-10T20:58:36.768Z,12.02
2018-05-10T21:01:42.321Z,11.94
2018-05-10T21:04:45.581Z,11.96
2018-05-10T21:07:49.626Z,12.04
2018-05-10T21:10:52.952Z,11.96
2018-05-10T21:13:56.215Z,11.90
2018-05-10T21:16:59.481Z,11.93
2018-05-10T21:20:03.514Z,11.88
2018-05-10T21:23:06.843Z,11.89
2018-05-10T21:26:10.063Z,11.92
2018-05-10T21:29:13.297Z,12.09
2018-05-10T21:32:16.759Z,12.07
2018-05-10T21:35:20.026Z,12.19
2018-05-10T21:38:24.058Z,12.24
2018-05-10T21:41:27.324Z,12.23
2018-05-10T21:44:30.581Z,12.25
2018-05-10T21:47:33.871Z,12.09
2018-05-10T21:50:37.126Z,12.18
2018-05-10T21:53:41.254Z,12.13
2018-05-10T21:56:45.325Z,12.07
2018-05-10T21:59:49.369Z,12.03
2018-05-10T22:02:52.689Z,11.95
2018-05-10T22:05:56.716Z,11.88
2018-05-10T22:09:00.979Z,11.82
2018-05-10T22:12:04.273Z,11.82
2018-05-10T22:15:07.476Z,11.76
2018-05-10T22:18:10.749Z,11.81
2018-05-10T22:21:14.137Z,11.79
2018-05-10T22:24:18.167Z,11.87
2018-05-10T22:27:21.425Z,11.67
2018-05-10T22:30:24.681Z,11.76
2018-05-10T22:33:28.165Z,11.66
2018-05-10T22:36:32.182Z,11.62
2018-05-10T22:39:36.203Z,11.78
2018-05-10T22:42:40.336Z,11.71
2018-05-10T22:45:43.586Z,11.75
2018-05-10T22:48:48.279Z,11.77
2018-05-10T22:51:51.529Z,11.67
2018-05-10T22:54:54.851Z,11.67
2018-05-10T22:57:58.865Z,11.65
2018-05-10T23:01:03.013Z,11.65
2018-05-10T23:04:06.274Z,11.58
2018-05-10T23:07:09.527Z,11.43
2018-05-10T23:10:12.802Z,11.47
2018-05-10T23:13:16.921Z,11.50
2018-05-10T23:16:20.948Z,11.53
2018-05-10T23:19:24.969Z,11.51
2018-05-10T23:22:28.259Z,11.42
2018-05-10T23:25:32.279Z,11.23
2018-05-10T23:28:35.562Z,11.40
2018-05-10T23:31:38.819Z,11.34
2018-05-10T23:34:42.075Z,11.26
2018-05-10T23:37:46.108Z,11.19
2018-05-10T23:40:50.131Z,11.08
2018-05-10T23:43:54.147Z,10.95
2018-05-10T23:46:57.401Z,11.06
2018-05-10T23:50:00.657Z,11.11
2018-05-10T23:53:03.926Z,11.15
2018-05-10T23:56:07.979Z,11.19
2018-05-10T23:59:11.244Z,11.11
